createdAt,value
2022-12-29T00:00:08.317Z,7.72
2022-12-29T00:02:36.555Z,7.73
2022-12-29T00:05:05.148Z,7.76
2022-12-29T00:07:33.366Z,7.75
2022-12-29T00:10:01.470Z,7.81
2022-12-29T00:12:49.538Z,7.83
2022-12-29T00:15:36.442Z,7.82
2022-12-29T00:18:04.754Z,7.85
2022-12-29T00:20:53.087Z,7.89
2022-12-29T00:23:39.521Z,7.87
2022-12-29T00:26:32.555Z,7.87
2022-12-29T00:29:19.209Z,7.86
2022-12-29T00:32:06.407Z,7.83
2022-12-29T00:34:53.960Z,7.86
2022-12-29T00:37:42.269Z,7.79
2022-12-29T00:40:28.195Z,7.82
2022-12-29T00:43:14.052Z,7.81
2022-12-29T00:45:42.675Z,7.78
2022-12-29T00:48:12.100Z,7.79
2022-12-29T00:50:39.151Z,7.81
2022-12-29T00:53:07.210Z,7.81
2022-12-29T00:55:38.467Z,7.79
2022-12-29T00:58:06.486Z,7.78
2022-12-29T01:00:35.263Z,7.82
2022-12-29T01:03:03.464Z,7.82
2022-12-29T01:05:32.993Z,7.83
2022-12-29T01:08:01.014Z,7.87
2022-12-29T01:10:28.259Z,7.87
2022-12-29T01:12:56.244Z,7.92
2022-12-29T01:15:24.438Z,7.94
2022-12-29T01:17:53.005Z,8.00
2022-12-29T01:20:21.055Z,8.03
2022-12-29T01:22:50.653Z,8.09
2022-12-29T01:25:18.767Z,8.10
2022-12-29T01:27:46.872Z,8.06
2022-12-29T01:30:14.884Z,8.03
2022-12-29T01:32:43.304Z,8.03
2022-12-29T01:35:11.797Z,8.02
2022-12-29T01:37:39.815Z,7.97
2022-12-29T01:40:10.473Z,7.94
2022-12-29T01:42:38.444Z,7.94
2022-12-29T01:45:11.009Z,8.02
2022-12-29T01:47:41.839Z,7.97
2022-12-29T01:50:12.176Z,7.97
2022-12-29T01:52:43.494Z,7.94
2022-12-29T01:55:13.250Z,7.94
2022-12-29T01:57:45.285Z,7.96
2022-12-29T02:00:15.624Z,8.00
2022-12-29T02:02:47.220Z,7.99
2022-12-29T02:05:20.218Z,8.00
2022-12-29T02:07:48.916Z,8.00
2022-12-29T02:10:18.531Z,8.11
2022-12-29T02:12:47.525Z,8.16
2022-12-29T02:15:16.140Z,8.20
2022-12-29T02:17:56.206Z,8.30
2022-12-29T02:20:55.891Z,8.40
2022-12-29T02:23:38.393Z,8.51
2022-12-29T02:26:12.565Z,8.55
2022-12-29T02:28:58.315Z,8.60
2022-12-29T02:31:30.448Z,8.65
2022-12-29T02:34:09.375Z,8.75
2022-12-29T02:36:43.701Z,8.79
2022-12-29T02:39:16.680Z,8.79
2022-12-29T02:41:54.295Z,8.82
2022-12-29T02:44:27.284Z,8.90
2022-12-29T02:47:00.832Z,8.95
2022-12-29T02:49:34.291Z,8.96
2022-12-29T02:52:04.706Z,8.99
2022-12-29T02:54:44.318Z,9.00
2022-12-29T02:57:14.470Z,9.00
2022-12-29T02:59:43.847Z,9.02
2022-12-29T03:02:32.573Z,9.03
2022-12-29T03:05:11.746Z,9.08
2022-12-29T03:07:47.258Z,9.15
2022-12-29T03:10:22.246Z,9.12
2022-12-29T03:13:13.232Z,9.09
2022-12-29T03:16:03.281Z,9.08
2022-12-29T03:18:40.236Z,9.15
2022-12-29T03:21:13.436Z,9.18
2022-12-29T03:23:44.253Z,9.16
2022-12-29T03:26:14.240Z,9.19
2022-12-29T03:28:47.085Z,9.22
2022-12-29T03:31:16.408Z,9.18
2022-12-29T03:33:47.216Z,9.20
2022-12-29T03:36:22.194Z,9.20
2022-12-29T03:38:54.091Z,9.22
2022-12-29T03:41:24.743Z,9.24
2022-12-29T03:43:52.815Z,9.24
2022-12-29T03:46:20.877Z,9.24
2022-12-29T03:48:50.486Z,9.27
2022-12-29T03:51:18.837Z,9.27
2022-12-29T03:53:47.018Z,9.26
2022-12-29T03:56:14.982Z,9.27
2022-12-29T03:58:43.216Z,9.27
2022-12-29T04:01:11.375Z,9.27
2022-12-29T04:03:39.501Z,9.31
2022-12-29T04:06:09.531Z,9.34
2022-12-29T04:08:37.510Z,9.33
2022-12-29T04:11:05.659Z,9.33
2022-12-29T04:13:33.636Z,9.36
2022-12-29T04:16:01.722Z,9.36
2022-12-29T04:18:29.862Z,9.39
2022-12-29T04:21:06.959Z,9.43
2022-12-29T04:23:38.739Z,9.44
2022-12-29T04:26:08.534Z,9.48
2022-12-29T04:28:36.892Z,9.48
2022-12-29T04:31:06.319Z,9.51
2022-12-29T04:33:34.520Z,9.50
2022-12-29T04:36:02.778Z,9.52
2022-12-29T04:38:30.823Z,9.55
2022-12-29T04:41:03.435Z,9.57
2022-12-29T04:43:31.406Z,9.58
2022-12-29T04:45:59.497Z,9.61
2022-12-29T04:48:27.621Z,9.62
2022-12-29T04:50:55.676Z,9.68
2022-12-29T04:53:23.658Z,9.70
2022-12-29T04:55:52.683Z,9.74
2022-12-29T04:58:23.185Z,9.82
2022-12-29T05:00:52.273Z,9.84
2022-12-29T05:03:20.468Z,9.88
2022-12-29T05:05:48.568Z,9.87
2022-12-29T05:08:16.676Z,9.79
2022-12-29T05:10:46.811Z,9.81
2022-12-29T05:13:15.117Z,9.79
2022-12-29T05:15:49.436Z,9.82
2022-12-29T05:18:17.651Z,9.82
2022-12-29T05:20:46.402Z,9.79
2022-12-29T05:23:14.448Z,9.84
2022-12-29T05:25:42.428Z,9.82
2022-12-29T05:28:10.410Z,9.84
2022-12-29T05:30:38.525Z,9.88
2022-12-29T05:33:08.079Z,9.89
2022-12-29T05:35:36.063Z,9.95
2022-12-29T05:38:04.049Z,10.06
2022-12-29T05:40:32.098Z,10.08
2022-12-29T05:43:00.874Z,10.09
2022-12-29T05:45:28.853Z,10.15
2022-12-29T05:47:56.897Z,10.13
2022-12-29T05:50:26.300Z,10.13
2022-12-29T05:52:54.322Z,10.13
2022-12-29T05:55:22.454Z,10.12
2022-12-29T05:57:50.742Z,10.13
2022-12-29T06:00:20.255Z,10.15
2022-12-29T06:02:48.456Z,10.16
2022-12-29T06:05:16.857Z,10.16
2022-12-29T06:07:46.724Z,10.18
2022-12-29T06:10:14.748Z,10.19
2022-12-29T06:12:42.704Z,10.25
2022-12-29T06:15:11.859Z,10.23
2022-12-29T06:17:40.124Z,10.18
2022-12-29T06:20:09.411Z,10.18
2022-12-29T06:22:37.740Z,10.16
2022-12-29T06:25:08.084Z,10.20
2022-12-29T06:27:36.305Z,10.25
2022-12-29T06:30:04.839Z,10.34
2022-12-29T06:32:32.843Z,10.27
2022-12-29T06:35:01.113Z,10.26
2022-12-29T06:37:29.397Z,10.25
2022-12-29T06:39:57.400Z,10.20
2022-12-29T06:42:27.039Z,10.22
2022-12-29T06:44:55.097Z,10.18
2022-12-29T06:47:23.113Z,10.16
2022-12-29T06:49:51.117Z,10.12
2022-12-29T06:52:19.116Z,10.10
2022-12-29T06:54:47.395Z,10.09
2022-12-29T06:57:15.353Z,10.09
2022-12-29T06:59:45.008Z,10.06
2022-12-29T07:02:13.420Z,10.02
2022-12-29T07:04:42.149Z,10.03
2022-12-29T07:07:10.136Z,9.98
2022-12-29T07:09:38.123Z,9.97
2022-12-29T07:12:07.007Z,9.92
2022-12-29T07:14:42.327Z,9.95
2022-12-29T07:17:12.533Z,9.91
2022-12-29T07:19:42.099Z,9.87
2022-12-29T07:22:10.555Z,9.82
2022-12-29T07:24:38.614Z,9.81
2022-12-29T07:27:06.853Z,9.73
2022-12-29T07:29:34.826Z,9.71
2022-12-29T07:32:02.835Z,9.65
2022-12-29T07:34:32.813Z,9.71
2022-12-29T07:37:00.934Z,9.70
2022-12-29T07:39:28.923Z,9.75
2022-12-29T07:42:02.691Z,9.75
2022-12-29T07:44:32.779Z,9.78
2022-12-29T07:47:01.521Z,9.81
2022-12-29T07:49:31.971Z,9.79
2022-12-29T07:52:00.351Z,9.82
2022-12-29T07:54:28.382Z,9.78
2022-12-29T07:56:56.611Z,9.81
2022-12-29T07:59:24.657Z,9.81
2022-12-29T08:01:52.777Z,9.82
2022-12-29T08:04:21.089Z,9.79
2022-12-29T08:06:50.876Z,9.82
2022-12-29T08:09:22.721Z,9.85
2022-12-29T08:11:52.871Z,9.88
2022-12-29T08:14:20.852Z,9.94
2022-12-29T08:16:49.143Z,9.99
2022-12-29T08:19:17.256Z,9.95
2022-12-29T08:21:45.324Z,9.94
2022-12-29T08:24:14.616Z,9.95
2022-12-29T08:26:42.626Z,9.99
2022-12-29T08:29:10.679Z,9.97
2022-12-29T08:31:39.279Z,9.98
2022-12-29T08:34:07.396Z,9.97
2022-12-29T08:36:35.450Z,9.99
2022-12-29T08:39:03.513Z,10.12
2022-12-29T08:41:35.736Z,10.32
2022-12-29T08:44:03.978Z,10.45
2022-12-29T08:46:32.194Z,10.56
2022-12-29T08:49:00.321Z,10.61
2022-12-29T08:51:28.392Z,10.70
2022-12-29T08:53:56.654Z,10.74
2022-12-29T08:56:25.587Z,10.81
2022-12-29T08:58:55.438Z,10.85
2022-12-29T09:01:23.586Z,10.85
2022-12-29T09:04:14.022Z,10.85
2022-12-29T09:06:40.913Z,10.83
2022-12-29T09:09:09.168Z,10.80
2022-12-29T09:11:37.238Z,10.78
2022-12-29T09:14:06.644Z,10.85
2022-12-29T09:16:35.454Z,11.02
2022-12-29T09:19:03.983Z,11.21
2022-12-29T09:21:32.571Z,11.32
2022-12-29T09:24:00.617Z,11.45
2022-12-29T09:26:28.632Z,11.59
2022-12-29T09:28:56.673Z,11.71
2022-12-29T09:31:26.513Z,11.69
2022-12-29T09:33:54.703Z,11.66
2022-12-29T09:36:22.790Z,11.71
2022-12-29T09:38:52.229Z,11.73
2022-12-29T09:41:24.595Z,11.80
2022-12-29T09:44:05.795Z,11.89
2022-12-29T09:46:37.404Z,12.04
2022-12-29T09:49:11.597Z,12.20
2022-12-29T09:51:40.579Z,12.31
2022-12-29T09:54:23.286Z,12.45
2022-12-29T09:56:51.813Z,12.52
2022-12-29T09:59:21.676Z,12.63
2022-12-29T10:01:54.777Z,12.70
2022-12-29T10:04:23.090Z,12.79
2022-12-29T10:07:28.124Z,12.89
2022-12-29T10:09:50.223Z,12.84
2022-12-29T10:12:26.077Z,12.96
2022-12-29T10:15:00.792Z,13.07
2022-12-29T10:17:37.928Z,13.20
2022-12-29T10:20:28.192Z,13.10
2022-12-29T10:23:07.177Z,13.01
2022-12-29T10:25:39.336Z,12.99
2022-12-29T10:28:20.113Z,12.90
2022-12-29T10:30:50.114Z,12.79
2022-12-29T10:33:21.960Z,12.70
2022-12-29T10:35:50.382Z,12.65
2022-12-29T10:38:25.129Z,12.62
2022-12-29T10:40:56.721Z,12.59
2022-12-29T10:43:28.752Z,12.61
2022-12-29T10:45:59.129Z,12.58
2022-12-29T10:48:32.294Z,12.58
2022-12-29T10:51:02.598Z,12.55
2022-12-29T10:53:36.856Z,12.55
2022-12-29T10:56:07.737Z,12.49
2022-12-29T10:58:35.881Z,12.49
2022-12-29T11:01:04.943Z,12.44
2022-12-29T11:03:42.756Z,12.44
2022-12-29T11:06:13.738Z,12.39
2022-12-29T11:08:51.908Z,12.39
2022-12-29T11:11:27.302Z,12.32
2022-12-29T11:14:00.590Z,12.26
2022-12-29T11:16:33.962Z,12.21
2022-12-29T11:19:04.029Z,12.12
2022-12-29T11:21:41.198Z,12.07
2022-12-29T11:24:22.085Z,11.89
2022-12-29T11:26:53.925Z,11.77
2022-12-29T11:29:29.688Z,11.73
2022-12-29T11:32:00.229Z,11.64
2022-12-29T11:34:36.582Z,11.63
2022-12-29T11:37:07.174Z,11.55
2022-12-29T11:39:40.102Z,11.49
2022-12-29T11:42:15.132Z,11.45
2022-12-29T11:44:45.842Z,11.38
2022-12-29T11:47:22.373Z,11.28
2022-12-29T11:49:54.665Z,11.18
2022-12-29T11:52:24.594Z,11.01
2022-12-29T11:54:53.034Z,10.85
2022-12-29T11:57:21.664Z,10.71
2022-12-29T11:59:56.023Z,10.55
2022-12-29T12:02:44.457Z,10.43
2022-12-29T12:05:19.733Z,10.33
2022-12-29T12:07:49.158Z,10.27
2022-12-29T12:10:25.062Z,10.20
2022-12-29T12:13:00.160Z,10.13
2022-12-29T12:15:32.320Z,10.08
2022-12-29T12:18:04.735Z,10.06
2022-12-29T12:20:37.199Z,10.03
2022-12-29T12:23:11.241Z,10.01
2022-12-29T12:25:41.154Z,9.98
2022-12-29T12:28:13.705Z,9.99
2022-12-29T12:30:44.214Z,9.92
2022-12-29T12:33:18.679Z,9.95
2022-12-29T12:35:56.061Z,9.92
2022-12-29T12:38:31.696Z,9.94
2022-12-29T12:41:09.009Z,9.91
2022-12-29T12:43:42.979Z,9.91
2022-12-29T12:46:22.174Z,9.88
2022-12-29T12:49:04.675Z,9.88
2022-12-29T12:51:36.360Z,9.89
2022-12-29T12:54:14.365Z,9.89
2022-12-29T12:56:53.530Z,9.87
2022-12-29T12:59:34.263Z,9.92
2022-12-29T13:02:09.899Z,9.94
2022-12-29T13:04:55.337Z,10.02
2022-12-29T13:07:31.176Z,10.06
2022-12-29T13:10:07.984Z,10.09
2022-12-29T13:12:41.113Z,10.10
2022-12-29T13:15:21.086Z,10.12
2022-12-29T13:17:54.109Z,10.12
2022-12-29T13:20:27.692Z,10.12
2022-12-29T13:23:04.494Z,10.12
2022-12-29T13:25:38.411Z,10.12
2022-12-29T13:28:11.491Z,10.10
2022-12-29T13:30:44.783Z,10.09
2022-12-29T13:33:21.737Z,10.09
2022-12-29T13:35:59.926Z,10.09
2022-12-29T13:38:34.710Z,10.10
2022-12-29T13:41:05.726Z,10.09
2022-12-29T13:43:34.902Z,10.09
2022-12-29T13:46:07.432Z,10.10
2022-12-29T13:48:42.002Z,10.09
2022-12-29T13:51:11.110Z,10.10
2022-12-29T13:53:51.865Z,10.13
2022-12-29T13:56:25.348Z,10.06
2022-12-29T13:58:58.374Z,10.09
2022-12-29T14:01:31.217Z,10.06
2022-12-29T14:04:00.359Z,10.06
2022-12-29T14:06:29.666Z,10.06
2022-12-29T14:09:01.906Z,10.06
2022-12-29T14:11:36.023Z,10.01
2022-12-29T14:14:13.773Z,9.99
2022-12-29T14:16:43.376Z,9.94
2022-12-29T14:19:15.542Z,9.94
2022-12-29T14:21:52.381Z,9.92
2022-12-29T14:24:42.777Z,9.95
2022-12-29T14:27:45.630Z,9.95
2022-12-29T14:30:59.298Z,9.98
2022-12-29T14:33:30.145Z,10.01
2022-12-29T14:35:59.223Z,10.05
2022-12-29T14:38:29.740Z,10.05
2022-12-29T14:41:28.524Z,10.08
2022-12-29T14:44:02.005Z,10.12
2022-12-29T14:46:48.275Z,10.18
2022-12-29T14:49:19.820Z,10.20
2022-12-29T14:51:48.465Z,10.22
2022-12-29T14:54:44.665Z,10.27
2022-12-29T14:57:20.525Z,10.32
2022-12-29T14:59:49.674Z,10.29
2022-12-29T15:02:21.288Z,10.27
2022-12-29T15:04:49.509Z,10.25
2022-12-29T15:07:19.489Z,10.16
2022-12-29T15:09:53.325Z,10.08
2022-12-29T15:12:26.084Z,10.02
2022-12-29T15:14:55.709Z,9.95
2022-12-29T15:17:28.439Z,9.89
2022-12-29T15:19:57.807Z,9.78
2022-12-29T15:22:26.432Z,9.70
2022-12-29T15:24:56.088Z,9.67
2022-12-29T15:27:27.719Z,9.58
2022-12-29T15:30:02.518Z,9.54
2022-12-29T15:32:40.611Z,9.47
2022-12-29T15:35:26.049Z,9.39
2022-12-29T15:37:54.151Z,9.34
2022-12-29T15:40:27.505Z,9.36
2022-12-29T15:43:07.770Z,9.40
2022-12-29T15:45:36.693Z,9.40
2022-12-29T15:48:06.560Z,9.36
2022-12-29T15:50:36.137Z,9.36
2022-12-29T15:53:04.500Z,9.34
2022-12-29T15:55:35.636Z,9.31
2022-12-29T15:58:06.687Z,9.33
2022-12-29T16:00:38.652Z,9.31
2022-12-29T16:03:07.797Z,9.34
2022-12-29T16:05:37.514Z,9.34
2022-12-29T16:08:19.234Z,9.37
2022-12-29T16:10:47.325Z,9.43
2022-12-29T16:13:21.356Z,9.54
2022-12-29T16:15:50.045Z,9.64
2022-12-29T16:18:24.818Z,9.78
2022-12-29T16:20:53.350Z,9.78
2022-12-29T16:23:24.195Z,9.82
2022-12-29T16:25:55.516Z,9.82
2022-12-29T16:28:26.255Z,9.87
2022-12-29T16:31:00.645Z,9.92
2022-12-29T16:33:39.212Z,9.89
2022-12-29T16:36:31.265Z,9.89
2022-12-29T16:39:18.632Z,9.91
2022-12-29T16:41:46.698Z,9.98
2022-12-29T16:44:18.777Z,9.99
2022-12-29T16:46:59.743Z,9.99
2022-12-29T16:49:28.249Z,10.01
2022-12-29T16:51:56.713Z,10.03
2022-12-29T16:54:26.954Z,10.08
2022-12-29T16:56:55.300Z,10.10
2022-12-29T16:59:33.102Z,10.08
2022-12-29T17:02:03.733Z,10.08
2022-12-29T17:04:31.941Z,10.18
2022-12-29T17:06:59.932Z,10.30
2022-12-29T17:09:29.590Z,10.30
2022-12-29T17:12:05.404Z,10.30
2022-12-29T17:14:45.405Z,10.30
2022-12-29T17:17:17.522Z,10.27
2022-12-29T17:19:48.286Z,10.25
2022-12-29T17:22:19.218Z,10.26
2022-12-29T17:24:47.207Z,10.20
2022-12-29T17:27:29.355Z,10.20
2022-12-29T17:30:00.736Z,10.16
2022-12-29T17:32:29.168Z,10.12
2022-12-29T17:34:57.117Z,10.08
2022-12-29T17:37:34.281Z,10.12
2022-12-29T17:40:03.511Z,10.18
2022-12-29T17:42:32.962Z,10.18
2022-12-29T17:45:03.109Z,10.18
2022-12-29T17:47:31.136Z,10.13
2022-12-29T17:49:59.099Z,10.09
2022-12-29T17:52:27.323Z,10.02
2022-12-29T17:54:56.454Z,9.94
2022-12-29T17:57:24.745Z,9.91
2022-12-29T17:59:52.744Z,9.87
2022-12-29T18:02:29.131Z,9.81
2022-12-29T18:04:58.350Z,9.77
2022-12-29T18:07:33.851Z,9.77
2022-12-29T18:10:04.688Z,9.81
2022-12-29T18:12:37.080Z,9.82
2022-12-29T18:15:05.190Z,9.85
2022-12-29T18:17:34.396Z,9.79
2022-12-29T18:20:02.467Z,9.78
2022-12-29T18:22:30.532Z,9.71
2022-12-29T18:24:58.614Z,9.65
2022-12-29T18:27:27.491Z,9.67
2022-12-29T18:29:55.554Z,9.70
2022-12-29T18:32:23.636Z,9.70
2022-12-29T18:34:52.886Z,9.68
2022-12-29T18:37:20.871Z,9.65
2022-12-29T18:39:48.851Z,9.64
2022-12-29T18:42:18.639Z,9.67
2022-12-29T18:44:46.727Z,9.62
2022-12-29T18:47:14.843Z,9.60
2022-12-29T18:49:42.933Z,9.54
2022-12-29T18:52:14.800Z,9.55
2022-12-29T18:54:42.822Z,9.50
2022-12-29T18:57:10.863Z,9.51
2022-12-29T18:59:39.113Z,9.44
2022-12-29T19:02:07.195Z,9.40
2022-12-29T19:04:35.585Z,9.34
2022-12-29T19:07:03.659Z,9.27
2022-12-29T19:09:33.013Z,9.19
2022-12-29T19:12:00.959Z,9.10
2022-12-29T19:14:29.500Z,9.06
2022-12-29T19:16:57.488Z,8.98
2022-12-29T19:19:25.488Z,8.92
2022-12-29T19:21:56.496Z,8.90
2022-12-29T19:24:24.642Z,8.95
2022-12-29T19:26:53.988Z,8.98
2022-12-29T19:29:22.024Z,8.98
2022-12-29T19:31:50.084Z,8.96
2022-12-29T19:34:18.661Z,8.99
2022-12-29T19:36:49.589Z,9.02
2022-12-29T19:39:17.765Z,9.05
2022-12-29T19:41:45.727Z,9.09
2022-12-29T19:44:15.308Z,9.10
2022-12-29T19:46:43.339Z,9.15
2022-12-29T19:49:11.693Z,9.19
2022-12-29T19:51:40.121Z,9.18
2022-12-29T19:54:08.107Z,9.19
2022-12-29T19:56:36.096Z,9.20
2022-12-29T19:59:04.055Z,9.20
2022-12-29T20:01:34.000Z,9.19
2022-12-29T20:04:02.908Z,9.20
2022-12-29T20:06:30.971Z,9.24
2022-12-29T20:08:59.019Z,9.24
2022-12-29T20:11:27.036Z,9.29
2022-12-29T20:13:55.032Z,9.31
2022-12-29T20:16:24.897Z,9.30
2022-12-29T20:18:55.603Z,9.36
2022-12-29T20:21:25.361Z,9.34
2022-12-29T20:23:54.531Z,9.33
2022-12-29T20:26:24.617Z,9.33
2022-12-29T20:28:53.233Z,9.33
2022-12-29T20:31:25.406Z,9.39
2022-12-29T20:33:54.846Z,9.39
2022-12-29T20:36:24.151Z,9.44
2022-12-29T20:38:54.262Z,9.43
2022-12-29T20:41:22.763Z,9.46
2022-12-29T20:43:53.215Z,9.44
2022-12-29T20:46:24.126Z,9.47
2022-12-29T20:48:56.108Z,9.44
2022-12-29T20:51:24.392Z,9.40
2022-12-29T20:53:52.771Z,9.40
2022-12-29T20:56:24.183Z,9.40
2022-12-29T20:59:25.770Z,9.40
2022-12-29T21:01:41.005Z,9.37
2022-12-29T21:04:10.517Z,9.36
2022-12-29T21:06:38.930Z,9.36
2022-12-29T21:09:07.668Z,9.36
2022-12-29T21:11:35.738Z,9.37
2022-12-29T21:14:03.862Z,9.39
2022-12-29T21:16:31.906Z,9.40
2022-12-29T21:18:59.900Z,9.39
2022-12-29T21:21:29.196Z,9.34
2022-12-29T21:24:05.159Z,9.29
2022-12-29T21:26:34.889Z,9.23
2022-12-29T21:29:04.289Z,9.16
2022-12-29T21:31:33.997Z,9.05
2022-12-29T21:34:02.534Z,9.03
2022-12-29T21:36:32.940Z,9.00
2022-12-29T21:39:03.320Z,8.92
2022-12-29T21:41:32.093Z,8.88
2022-12-29T21:44:18.100Z,8.82
2022-12-29T21:46:48.691Z,8.79
2022-12-29T21:49:17.024Z,8.72
2022-12-29T21:51:53.686Z,8.67
2022-12-29T21:54:41.557Z,8.61
2022-12-29T21:57:10.228Z,8.52
2022-12-29T22:00:04.421Z,8.51
2022-12-29T22:02:49.968Z,8.44
2022-12-29T22:05:36.163Z,8.41
2022-12-29T22:08:23.782Z,8.37
2022-12-29T22:11:09.126Z,8.31
2022-12-29T22:13:39.253Z,8.30
2022-12-29T22:16:09.045Z,8.19
2022-12-29T22:18:37.581Z,8.20
2022-12-29T22:21:06.392Z,8.16
2022-12-29T22:23:36.238Z,8.16
2022-12-29T22:26:04.992Z,8.11
2022-12-29T22:28:33.352Z,8.00
2022-12-29T22:31:01.578Z,7.99
2022-12-29T22:33:29.581Z,7.96
2022-12-29T22:35:57.639Z,7.90
2022-12-29T22:38:25.618Z,7.87
2022-12-29T22:40:59.273Z,7.86
2022-12-29T22:43:29.869Z,7.87
2022-12-29T22:46:04.414Z,7.85
2022-12-29T22:48:33.010Z,7.85
2022-12-29T22:51:01.066Z,7.85
2022-12-29T22:53:29.096Z,7.85
2022-12-29T22:56:04.237Z,7.90
2022-12-29T22:58:32.242Z,7.92
2022-12-29T23:01:00.346Z,7.96
2022-12-29T23:03:28.468Z,7.99
2022-12-29T23:05:57.849Z,8.03
2022-12-29T23:08:25.892Z,8.06
2022-12-29T23:10:53.982Z,8.06
2022-12-29T23:13:23.268Z,8.07
2022-12-29T23:15:51.374Z,8.04
2022-12-29T23:18:19.519Z,8.07
2022-12-29T23:20:49.650Z,8.07
2022-12-29T23:23:41.800Z,8.11
2022-12-29T23:26:14.379Z,8.11
2022-12-29T23:28:43.715Z,8.13
2022-12-29T23:31:12.512Z,8.14
2022-12-29T23:33:40.749Z,8.13
2022-12-29T23:36:09.290Z,8.10
2022-12-29T23:38:37.259Z,8.07
2022-12-29T23:41:05.615Z,8.03
2022-12-29T23:43:33.718Z,7.99
2022-12-29T23:46:08.595Z,7.92
2022-12-29T23:48:36.889Z,7.94
2022-12-29T23:51:06.845Z,7.99
2022-12-29T23:53:35.132Z,7.96
2022-12-29T23:56:03.328Z,7.99
2022-12-29T23:58:31.408Z,8.03
